createdAt,value
2022-10-19T00:02:53.451Z,12.10
2022-10-19T00:07:55.600Z,12.20
2022-10-19T00:12:57.246Z,12.30
2022-10-19T00:17:58.964Z,12.20
2022-10-19T00:23:00.661Z,12.20
2022-10-19T00:28:02.382Z,12.20
2022-10-19T00:33:04.713Z,12.20
2022-10-19T00:38:06.765Z,12.20
2022-10-19T00:43:30.000Z,12.20
2022-10-19T00:48:33.304Z,12.20
2022-10-19T00:53:36.104Z,12.10
2022-10-19T00:58:38.379Z,12.00
2022-10-19T01:03:40.532Z,12.00
2022-10-19T01:08:43.252Z,11.90
2022-10-19T01:14:03.984Z,11.80
2022-10-19T01:19:20.964Z,11.80
2022-10-19T01:24:48.028Z,11.80
2022-10-19T01:30:11.266Z,11.80
2022-10-19T01:35:22.721Z,11.70
2022-10-19T01:40:41.401Z,11.80
2022-10-19T01:45:54.733Z,11.70
2022-10-19T01:51:04.290Z,11.70
2022-10-19T01:56:08.252Z,11.70
2022-10-19T02:01:12.447Z,11.70
2022-10-19T02:06:14.605Z,11.70
2022-10-19T02:11:17.814Z,11.80
2022-10-19T02:16:26.047Z,11.70
2022-10-19T02:21:28.456Z,11.70
2022-10-19T02:26:30.146Z,11.70
2022-10-19T02:31:32.241Z,11.70
2022-10-19T02:36:33.961Z,11.70
2022-10-19T02:41:47.812Z,11.60
2022-10-19T02:47:02.421Z,11.60
2022-10-19T02:52:05.759Z,11.50
2022-10-19T02:57:15.600Z,11.70
2022-10-19T03:02:18.401Z,11.50
2022-10-19T03:07:21.588Z,11.50
2022-10-19T03:12:23.466Z,11.50
2022-10-19T03:17:25.120Z,11.40
2022-10-19T03:22:26.789Z,11.40
2022-10-19T03:27:28.451Z,11.40
2022-10-19T03:32:30.060Z,11.30
2022-10-19T03:37:31.963Z,11.30
2022-10-19T03:42:33.717Z,11.30
2022-10-19T03:47:35.526Z,11.30
2022-10-19T03:52:37.444Z,11.20
2022-10-19T03:57:39.150Z,11.20
2022-10-19T04:02:40.813Z,11.30
2022-10-19T04:07:42.435Z,11.30
2022-10-19T04:12:44.079Z,11.20
2022-10-19T04:17:48.515Z,11.30
2022-10-19T04:22:52.794Z,11.20
2022-10-19T04:27:54.409Z,11.10
2022-10-19T04:32:56.064Z,11.10
2022-10-19T04:37:59.087Z,11.00
2022-10-19T04:43:00.830Z,11.00
2022-10-19T04:48:02.600Z,10.90
2022-10-19T04:53:04.416Z,10.90
2022-10-19T04:58:06.167Z,10.80
2022-10-19T05:03:08.006Z,10.80
2022-10-19T05:08:10.649Z,10.80
2022-10-19T05:13:12.384Z,10.80
2022-10-19T05:18:14.009Z,10.80
2022-10-19T05:23:15.691Z,10.70
2022-10-19T05:28:17.403Z,10.70
2022-10-19T05:33:19.085Z,10.60
2022-10-19T05:38:20.735Z,10.60
2022-10-19T05:43:22.495Z,10.60
2022-10-19T05:48:24.320Z,10.60
2022-10-19T05:53:26.173Z,10.60
2022-10-19T05:58:27.848Z,10.60
2022-10-19T06:03:30.263Z,10.60
2022-10-19T06:08:32.477Z,10.50
2022-10-19T06:13:34.349Z,10.40
2022-10-19T06:18:36.841Z,10.40
2022-10-19T06:23:39.841Z,10.50
2022-10-19T06:28:44.028Z,10.40
2022-10-19T06:33:48.646Z,10.40
2022-10-19T06:38:51.299Z,10.40
2022-10-19T06:43:54.786Z,10.40
2022-10-19T06:48:59.819Z,10.50
2022-10-19T06:54:01.764Z,10.50
2022-10-19T06:59:03.660Z,10.60
2022-10-19T07:04:05.772Z,10.60
2022-10-19T07:09:07.433Z,10.70
2022-10-19T07:14:09.204Z,10.70
2022-10-19T07:19:11.690Z,10.70
2022-10-19T07:24:13.396Z,10.80
2022-10-19T07:29:15.148Z,10.80
2022-10-19T07:34:17.007Z,10.80
2022-10-19T07:39:18.749Z,10.80
2022-10-19T07:44:20.391Z,10.90
2022-10-19T07:49:22.392Z,10.80
2022-10-19T07:54:24.614Z,10.70
2022-10-19T07:59:26.262Z,10.70
2022-10-19T08:04:59.537Z,10.70
2022-10-19T08:09:54.148Z,10.70
2022-10-19T08:14:56.053Z,10.70
2022-10-19T08:19:57.658Z,10.60
2022-10-19T08:24:59.330Z,10.50
2022-10-19T08:30:00.974Z,10.50
2022-10-19T08:35:05.038Z,10.40
2022-10-19T08:40:18.759Z,10.40
2022-10-19T08:50:44.569Z,10.40
2022-10-19T08:55:58.659Z,10.40
2022-10-19T09:01:37.589Z,10.40
2022-10-19T09:07:00.209Z,10.40
2022-10-19T09:12:05.308Z,10.50
2022-10-19T09:17:15.821Z,10.60
2022-10-19T09:22:32.421Z,10.80
2022-10-19T09:27:45.831Z,10.90
2022-10-19T09:33:00.406Z,11.00
2022-10-19T09:38:04.789Z,11.20
2022-10-19T09:43:34.257Z,11.30
2022-10-19T09:48:49.967Z,11.40
2022-10-19T09:53:54.379Z,11.60
2022-10-19T09:58:57.463Z,11.80
2022-10-19T10:04:09.892Z,11.90
2022-10-19T10:09:22.057Z,12.20
2022-10-19T10:14:30.170Z,12.40
2022-10-19T10:19:33.646Z,12.50
2022-10-19T10:24:36.260Z,12.80
2022-10-19T10:29:39.292Z,13.00
2022-10-19T10:34:51.984Z,13.00
2022-10-19T10:40:00.532Z,13.20
2022-10-19T10:45:23.689Z,13.20
2022-10-19T10:50:32.589Z,13.30
2022-10-19T10:55:34.693Z,13.40
2022-10-19T11:00:40.156Z,13.50
2022-10-19T11:05:48.001Z,13.60
2022-10-19T11:11:06.288Z,13.80
2022-10-19T11:16:22.035Z,13.80
2022-10-19T11:21:42.475Z,14.10
2022-10-19T11:27:07.912Z,14.10
2022-10-19T11:32:23.031Z,14.20
2022-10-19T11:37:45.750Z,14.30
2022-10-19T11:43:06.978Z,14.40
2022-10-19T11:48:44.183Z,14.50
2022-10-19T11:54:16.873Z,14.60
2022-10-19T11:59:40.181Z,14.80
2022-10-19T12:04:57.238Z,14.90
2022-10-19T12:10:33.742Z,14.90
2022-10-19T12:15:41.706Z,15.00
2022-10-19T12:20:49.560Z,15.00
2022-10-19T12:25:52.856Z,15.10
2022-10-19T12:30:55.597Z,15.10
2022-10-19T12:36:06.200Z,15.30
2022-10-19T12:41:18.443Z,15.30
2022-10-19T12:46:49.813Z,15.30
2022-10-19T12:51:55.884Z,15.40
2022-10-19T12:57:00.125Z,15.50
2022-10-19T13:02:05.196Z,15.60
2022-10-19T13:07:09.041Z,15.70
2022-10-19T13:12:16.322Z,15.80
2022-10-19T13:17:34.353Z,15.90
2022-10-19T13:22:36.703Z,15.90
2022-10-19T13:27:39.668Z,16.00
2022-10-19T13:32:45.556Z,16.00
2022-10-19T13:38:07.235Z,16.00
2022-10-19T13:43:19.629Z,16.10
2022-10-19T13:48:34.614Z,16.10
2022-10-19T13:54:24.696Z,16.10
2022-10-19T13:59:39.283Z,16.10
2022-10-19T14:05:16.570Z,16.10
2022-10-19T14:10:28.275Z,16.10
2022-10-19T14:15:35.566Z,16.10
2022-10-19T14:20:38.765Z,16.10
2022-10-19T14:25:40.519Z,16.00
2022-10-19T14:30:42.418Z,16.00
2022-10-19T14:35:49.889Z,16.00
2022-10-19T14:40:51.804Z,15.90
2022-10-19T14:46:11.794Z,16.00
2022-10-19T14:51:40.370Z,15.90
2022-10-19T14:56:51.910Z,15.80
2022-10-19T15:01:56.907Z,15.70
2022-10-19T15:07:03.283Z,15.70
2022-10-19T15:12:08.838Z,15.70
2022-10-19T15:17:28.600Z,15.70
2022-10-19T15:22:33.543Z,15.80
2022-10-19T15:27:45.965Z,15.80
2022-10-19T15:33:13.491Z,15.80
2022-10-19T15:38:26.569Z,15.70
2022-10-19T15:43:32.978Z,15.70
2022-10-19T15:48:41.245Z,15.80
2022-10-19T15:53:42.968Z,15.60
2022-10-19T15:58:44.645Z,15.50
2022-10-19T16:03:46.769Z,15.40
2022-10-19T16:08:51.001Z,15.30
2022-10-19T16:13:52.996Z,15.30
2022-10-19T16:18:55.364Z,15.10
2022-10-19T16:23:57.178Z,15.10
2022-10-19T16:29:01.263Z,15.00
2022-10-19T16:34:03.941Z,14.80
2022-10-19T16:39:05.741Z,14.80
2022-10-19T16:44:07.372Z,14.70
2022-10-19T16:49:09.098Z,14.70
2022-10-19T16:54:11.702Z,14.60
2022-10-19T16:59:16.529Z,14.50
2022-10-19T17:04:20.417Z,14.50
2022-10-19T17:09:41.781Z,14.30
2022-10-19T17:14:43.801Z,14.30
2022-10-19T17:19:45.611Z,14.20
2022-10-19T17:24:47.422Z,14.20
2022-10-19T17:29:49.330Z,14.20
2022-10-19T17:34:53.273Z,14.10
2022-10-19T17:39:55.043Z,14.10
2022-10-19T17:44:56.838Z,14.00
2022-10-19T17:49:59.713Z,14.00
2022-10-19T17:55:11.787Z,13.90
2022-10-19T18:00:14.908Z,14.00
2022-10-19T18:05:17.629Z,13.90
2022-10-19T18:10:19.489Z,14.00
2022-10-19T18:15:21.263Z,13.90
2022-10-19T18:20:22.979Z,13.90
2022-10-19T18:25:42.178Z,13.80
2022-10-19T18:30:46.457Z,13.80
2022-10-19T18:35:48.211Z,13.80
2022-10-19T18:40:49.891Z,13.80
2022-10-19T18:45:57.103Z,13.70
2022-10-19T18:51:02.431Z,13.70
2022-10-19T18:56:06.537Z,13.60
2022-10-19T19:01:14.336Z,13.60
2022-10-19T19:06:25.095Z,13.50
2022-10-19T19:11:35.847Z,13.50
2022-10-19T19:16:39.993Z,13.50
2022-10-19T19:21:44.204Z,13.40
2022-10-19T19:26:49.991Z,13.30
2022-10-19T19:31:53.399Z,13.30
2022-10-19T19:36:55.276Z,13.20
2022-10-19T19:41:56.928Z,13.20
2022-10-19T19:47:00.912Z,13.10
2022-10-19T19:52:02.576Z,13.10
2022-10-19T19:57:06.056Z,13.00
2022-10-19T20:02:08.903Z,13.00
2022-10-19T20:07:10.637Z,12.90
2022-10-19T20:12:12.240Z,12.90
2022-10-19T20:17:14.049Z,12.80
2022-10-19T20:22:16.265Z,12.80
2022-10-19T20:27:18.130Z,12.80
2022-10-19T20:32:20.861Z,12.80
2022-10-19T20:37:22.940Z,12.80
2022-10-19T20:42:24.575Z,12.80
2022-10-19T20:47:26.250Z,12.80
2022-10-19T20:52:27.937Z,12.70
2022-10-19T20:57:30.420Z,12.70
2022-10-19T21:02:32.088Z,12.60
2022-10-19T21:07:33.789Z,12.60
2022-10-19T21:12:35.525Z,12.50
2022-10-19T21:17:37.425Z,12.50
2022-10-19T21:22:41.207Z,12.50
2022-10-19T21:27:43.053Z,12.50
2022-10-19T21:32:44.750Z,12.50
2022-10-19T21:37:46.506Z,12.50
2022-10-19T21:42:48.115Z,12.30
2022-10-19T21:47:49.885Z,12.40
2022-10-19T21:52:51.507Z,12.40
2022-10-19T21:57:53.134Z,12.30
2022-10-19T22:02:55.225Z,12.30
2022-10-19T22:07:56.952Z,12.40
2022-10-19T22:12:58.612Z,12.40
2022-10-19T22:18:00.293Z,12.40
2022-10-19T22:23:02.875Z,12.40
2022-10-19T22:28:04.664Z,12.40
2022-10-19T22:33:06.291Z,12.50
2022-10-19T22:38:10.075Z,12.50
2022-10-19T22:43:12.789Z,12.50
2022-10-19T22:48:15.469Z,12.50
2022-10-19T22:53:17.121Z,12.50
2022-10-19T22:58:19.322Z,12.60
2022-10-19T23:03:20.941Z,12.70
2022-10-19T23:08:22.977Z,12.70
2022-10-19T23:13:24.895Z,12.70
2022-10-19T23:18:26.677Z,12.70
2022-10-19T23:23:29.761Z,12.80
2022-10-19T23:28:32.852Z,12.90
2022-10-19T23:33:35.494Z,13.00
2022-10-19T23:38:37.276Z,13.00
2022-10-19T23:43:39.784Z,13.00
2022-10-19T23:48:42.142Z,13.10
2022-10-19T23:53:45.743Z,13.00
2022-10-19T23:58:48.130Z,13.20
